createdAt,value
2018-06-02T00:01:35.468Z,7.60
2018-06-02T00:04:04.490Z,7.93
2018-06-02T00:06:32.732Z,7.43
2018-06-02T00:09:01.770Z,7.93
2018-06-02T00:11:30.791Z,7.87
2018-06-02T00:13:59.044Z,8.50
2018-06-02T00:16:27.307Z,8.20
2018-06-02T00:18:55.541Z,9.47
2018-06-02T00:21:23.808Z,8.10
2018-06-02T00:23:52.113Z,8.27
2018-06-02T00:26:20.335Z,8.10
2018-06-02T00:28:48.611Z,8.30
2018-06-02T00:31:16.851Z,8.27
2018-06-02T00:33:45.110Z,7.47
2018-06-02T00:36:14.148Z,7.77
2018-06-02T00:38:42.414Z,7.97
2018-06-02T00:41:10.671Z,8.20
2018-06-02T00:43:39.127Z,8.50
2018-06-02T00:46:07.363Z,8.10
2018-06-02T00:48:35.599Z,8.50
2018-06-02T00:51:03.871Z,8.70
2018-06-02T00:53:32.131Z,9.10
2018-06-02T00:56:01.184Z,9.60
2018-06-02T00:58:29.447Z,8.50
2018-06-02T01:00:57.751Z,8.40
2018-06-02T01:03:25.994Z,8.63
2018-06-02T01:05:54.275Z,8.87
2018-06-02T01:08:22.515Z,8.33
2018-06-02T01:10:51.547Z,8.43
2018-06-02T01:13:19.824Z,7.93
2018-06-02T01:15:48.051Z,8.00
2018-06-02T01:18:17.095Z,8.10
2018-06-02T01:20:45.340Z,8.93
2018-06-02T01:23:14.376Z,8.70
2018-06-02T01:25:42.612Z,9.17
2018-06-02T01:28:11.643Z,9.57
2018-06-02T01:30:39.879Z,8.90
2018-06-02T01:33:08.915Z,9.70
2018-06-02T01:35:37.151Z,8.97
2018-06-02T01:38:06.154Z,9.10
2018-06-02T01:40:34.414Z,8.73
2018-06-02T01:43:03.448Z,9.40
2018-06-02T01:45:31.727Z,8.70
2018-06-02T01:48:00.016Z,8.77
2018-06-02T01:50:28.258Z,8.50
2018-06-02T01:52:56.547Z,7.63
2018-06-02T01:55:24.788Z,9.40
2018-06-02T01:57:53.827Z,8.57
2018-06-02T02:00:22.059Z,8.03
2018-06-02T02:02:51.059Z,8.70
2018-06-02T02:05:19.335Z,9.07
2018-06-02T02:07:48.343Z,8.90
2018-06-02T02:10:16.619Z,8.93
2018-06-02T02:12:45.589Z,8.50
2018-06-02T02:15:13.855Z,8.60
2018-06-02T02:17:42.123Z,8.57
2018-06-02T02:20:10.428Z,8.63
2018-06-02T02:22:39.459Z,8.03
2018-06-02T02:25:07.735Z,8.10
2018-06-02T02:27:35.963Z,8.40
2018-06-02T02:30:05.013Z,8.33
2018-06-02T02:32:33.260Z,8.93
2018-06-02T02:35:01.495Z,8.83
2018-06-02T02:37:29.788Z,8.40
2018-06-02T02:39:58.836Z,10.17
2018-06-02T02:42:27.084Z,9.93
2018-06-02T02:44:55.361Z,8.93
2018-06-02T02:47:23.604Z,9.27
2018-06-02T02:49:51.864Z,9.30
2018-06-02T02:52:20.104Z,8.73
2018-06-02T02:54:48.360Z,8.83
2018-06-02T02:57:16.697Z,8.37
2018-06-02T02:59:44.972Z,10.93
2018-06-02T03:02:13.208Z,8.37
2018-06-02T03:04:41.508Z,8.43
2018-06-02T03:07:09.751Z,9.30
2018-06-02T03:09:37.993Z,8.63
2018-06-02T03:12:07.124Z,8.70
2018-06-02T03:14:35.392Z,9.20
2018-06-02T03:17:03.688Z,9.30
2018-06-02T03:19:31.951Z,8.37
2018-06-02T03:24:31.895Z,9.13
2018-06-02T03:27:00.155Z,9.30
2018-06-02T03:29:29.191Z,8.83
2018-06-02T03:31:57.458Z,8.83
2018-06-02T03:34:25.712Z,8.60
2018-06-02T03:36:53.964Z,9.43
2018-06-02T03:39:22.963Z,8.63
2018-06-02T03:41:51.996Z,9.43
2018-06-02T03:44:20.236Z,9.37
2018-06-02T03:46:49.233Z,8.90
2018-06-02T03:49:18.259Z,8.73
2018-06-02T03:51:46.655Z,9.60
2018-06-02T03:54:14.888Z,9.37
2018-06-02T03:56:43.883Z,9.73
2018-06-02T03:59:12.115Z,9.80
2018-06-02T04:01:40.366Z,8.80
2018-06-02T04:06:37.348Z,9.03
2018-06-02T04:09:05.576Z,9.80
2018-06-02T04:11:33.836Z,9.03
2018-06-02T04:14:02.833Z,9.77
2018-06-02T04:16:31.827Z,9.03
2018-06-02T04:19:00.824Z,9.30
2018-06-02T04:21:29.863Z,9.10
2018-06-02T04:23:58.119Z,8.93
2018-06-02T04:26:26.403Z,9.07
2018-06-02T04:28:54.640Z,9.83
2018-06-02T04:31:23.663Z,9.73
2018-06-02T04:33:51.918Z,9.13
2018-06-02T04:36:20.940Z,9.13
2018-06-02T04:38:49.207Z,9.53
2018-06-02T04:41:17.452Z,9.43
2018-06-02T04:43:46.479Z,10.13
2018-06-02T04:46:14.727Z,8.53
2018-06-02T04:48:43.772Z,9.90
2018-06-02T04:51:12.008Z,9.70
2018-06-02T04:53:40.275Z,10.07
2018-06-02T04:56:09.292Z,9.07
2018-06-02T04:58:37.567Z,10.13
2018-06-02T05:01:05.832Z,9.30
2018-06-02T05:03:34.069Z,9.33
2018-06-02T05:06:02.335Z,9.10
2018-06-02T05:08:30.568Z,9.80
2018-06-02T05:10:58.808Z,8.83
2018-06-02T05:13:27.230Z,9.93
2018-06-02T05:15:55.468Z,10.10
2018-06-02T05:18:24.472Z,10.10
2018-06-02T05:20:53.537Z,10.17
2018-06-02T05:23:21.767Z,9.10
2018-06-02T05:25:50.019Z,9.40
2018-06-02T05:28:19.068Z,9.93
2018-06-02T05:30:47.364Z,11.30
2018-06-02T05:33:15.656Z,9.70
2018-06-02T05:35:43.927Z,8.80
2018-06-02T05:38:12.191Z,9.77
2018-06-02T05:40:40.453Z,8.70
2018-06-02T05:43:08.683Z,8.57
2018-06-02T05:45:36.940Z,8.63
2018-06-02T05:48:05.172Z,9.30
2018-06-02T05:50:33.431Z,8.40
2018-06-02T05:53:01.684Z,8.27
2018-06-02T05:58:04.460Z,8.80
2018-06-02T06:00:32.691Z,9.30
2018-06-02T06:03:00.964Z,8.70
2018-06-02T06:05:29.226Z,10.03
2018-06-02T06:07:57.507Z,9.40
2018-06-02T06:10:25.781Z,9.67
2018-06-02T06:12:54.013Z,9.90
2018-06-02T06:15:22.295Z,9.47
2018-06-02T06:17:50.523Z,9.67
2018-06-02T06:20:18.832Z,9.50
2018-06-02T06:22:47.071Z,9.33
2018-06-02T06:25:15.303Z,8.60
2018-06-02T06:27:44.373Z,9.03
2018-06-02T06:30:12.596Z,7.97
2018-06-02T06:32:40.829Z,7.93
2018-06-02T06:35:09.128Z,6.87
2018-06-02T06:37:38.168Z,6.70
2018-06-02T06:40:06.439Z,6.53
2018-06-02T06:42:34.680Z,6.13
2018-06-02T06:45:03.723Z,5.37
2018-06-02T06:47:31.955Z,6.43
2018-06-02T06:50:00.208Z,6.53
2018-06-02T06:52:28.575Z,5.27
2018-06-02T06:54:56.848Z,4.77
2018-06-02T06:57:25.868Z,5.67
2018-06-02T06:59:54.099Z,5.87
2018-06-02T07:02:22.396Z,4.50
2018-06-02T07:04:50.635Z,5.07
2018-06-02T07:07:18.889Z,5.03
2018-06-02T07:09:48.697Z,8.50
2018-06-02T07:12:17.768Z,5.17
2018-06-02T07:14:46.067Z,6.17
2018-06-02T07:17:15.073Z,7.23
2018-06-02T07:19:43.336Z,6.30
2018-06-02T07:22:12.335Z,6.60
2018-06-02T07:24:41.395Z,4.43
2018-06-02T07:27:09.641Z,6.43
2018-06-02T07:29:37.952Z,3.83
2018-06-02T07:32:06.260Z,5.97
2018-06-02T07:34:35.255Z,3.97
2018-06-02T07:37:03.547Z,5.00
2018-06-02T07:39:31.801Z,5.13
2018-06-02T07:42:00.852Z,4.23
2018-06-02T07:44:29.088Z,4.40
2018-06-02T07:46:57.334Z,5.53
2018-06-02T07:49:25.664Z,4.90
2018-06-02T07:51:53.911Z,4.37
2018-06-02T07:54:22.174Z,4.70
2018-06-02T07:56:50.448Z,3.60
2018-06-02T07:59:18.695Z,6.47
2018-06-02T08:01:46.978Z,6.93
2018-06-02T08:04:15.252Z,4.07
2018-06-02T08:06:43.488Z,4.03
2018-06-02T08:09:11.715Z,5.70
2018-06-02T08:11:39.980Z,3.40
2018-06-02T08:14:08.236Z,4.30
2018-06-02T08:16:36.487Z,3.63
2018-06-02T08:19:04.772Z,4.63
2018-06-02T08:21:33.028Z,2.33
2018-06-02T08:24:01.287Z,3.07
2018-06-02T08:26:29.527Z,6.40
2018-06-02T08:28:57.788Z,5.30
2018-06-02T08:31:26.103Z,2.97
2018-06-02T08:33:54.358Z,3.97
2018-06-02T08:36:22.617Z,4.60
2018-06-02T08:38:50.882Z,3.97
2018-06-02T08:41:19.139Z,6.13
2018-06-02T08:43:47.416Z,3.20
2018-06-02T08:46:15.699Z,2.53
2018-06-02T08:48:43.931Z,4.03
2018-06-02T08:51:12.213Z,3.23
2018-06-02T08:53:40.759Z,3.67
2018-06-02T08:56:09.771Z,3.07
2018-06-02T08:58:38.123Z,3.43
2018-06-02T09:01:06.405Z,3.27
2018-06-02T09:03:34.687Z,4.80
2018-06-02T09:06:02.963Z,3.43
2018-06-02T09:08:31.200Z,3.97
2018-06-02T09:10:59.491Z,3.87
2018-06-02T09:13:28.023Z,4.97
2018-06-02T09:15:56.401Z,4.30
2018-06-02T09:18:24.664Z,3.73
2018-06-02T09:20:53.001Z,3.43
2018-06-02T09:23:22.042Z,5.37
2018-06-02T09:25:50.356Z,5.27
2018-06-02T09:28:19.368Z,4.37
2018-06-02T09:30:47.612Z,3.90
2018-06-02T09:33:15.880Z,4.73
2018-06-02T09:35:44.296Z,4.43
2018-06-02T09:38:12.592Z,3.60
2018-06-02T09:40:41.552Z,4.23
2018-06-02T09:43:10.576Z,3.90
2018-06-02T09:45:38.852Z,4.67
2018-06-02T09:48:07.091Z,5.00
2018-06-02T09:50:36.091Z,4.27
2018-06-02T09:53:05.135Z,3.33
2018-06-02T09:55:33.445Z,3.67
2018-06-02T09:58:01.695Z,5.27
2018-06-02T10:00:30.763Z,5.23
2018-06-02T10:02:58.995Z,3.33
2018-06-02T10:05:27.258Z,3.10
2018-06-02T10:07:55.523Z,7.17
2018-06-02T10:10:23.841Z,4.37
2018-06-02T10:12:52.923Z,7.00
2018-06-02T10:15:21.163Z,3.53
2018-06-02T10:17:49.426Z,4.60
2018-06-02T10:20:17.700Z,3.60
2018-06-02T10:22:45.952Z,4.30
2018-06-02T10:25:14.291Z,5.53
2018-06-02T10:27:42.543Z,4.30
2018-06-02T10:30:10.824Z,5.20
2018-06-02T10:32:39.060Z,3.57
2018-06-02T10:35:07.299Z,3.63
2018-06-02T10:37:35.564Z,4.20
2018-06-02T10:40:03.824Z,4.73
2018-06-02T10:42:32.113Z,3.87
2018-06-02T10:45:00.367Z,5.30
2018-06-02T10:47:28.683Z,3.10
2018-06-02T10:49:56.915Z,6.27
2018-06-02T10:52:25.215Z,5.63
2018-06-02T10:54:53.447Z,5.30
2018-06-02T10:57:21.743Z,3.53
2018-06-02T10:59:50.040Z,3.37
2018-06-02T11:02:18.273Z,4.67
2018-06-02T11:04:46.508Z,3.33
2018-06-02T11:07:14.816Z,4.50
2018-06-02T11:09:43.905Z,4.00
2018-06-02T11:12:12.899Z,6.27
2018-06-02T11:14:41.899Z,3.77
2018-06-02T11:17:11.006Z,3.47
2018-06-02T11:19:39.218Z,4.57
2018-06-02T11:22:07.591Z,4.73
2018-06-02T11:24:35.919Z,3.90
2018-06-02T11:27:04.940Z,5.27
2018-06-02T11:29:33.240Z,3.93
2018-06-02T11:32:01.535Z,3.83
2018-06-02T11:34:29.773Z,3.83
2018-06-02T11:36:58.008Z,5.17
2018-06-02T11:39:26.243Z,5.13
2018-06-02T11:41:54.507Z,4.00
2018-06-02T11:44:22.765Z,5.40
2018-06-02T11:46:51.759Z,3.60
2018-06-02T11:49:20.024Z,3.43
2018-06-02T11:51:49.020Z,5.00
2018-06-02T11:54:18.023Z,4.40
2018-06-02T11:56:46.327Z,6.20
2018-06-02T11:59:14.563Z,3.73
2018-06-02T12:01:43.571Z,4.10
2018-06-02T12:04:11.971Z,2.97
2018-06-02T12:06:40.207Z,3.73
2018-06-02T12:09:09.216Z,3.87
2018-06-02T12:11:38.387Z,4.00
2018-06-02T12:14:07.398Z,3.57
2018-06-02T12:16:36.408Z,4.33
2018-06-02T12:19:05.449Z,3.70
2018-06-02T12:21:33.680Z,5.70
2018-06-02T12:24:01.952Z,3.50
2018-06-02T12:26:30.179Z,4.83
2018-06-02T12:28:58.504Z,3.37
2018-06-02T12:31:26.736Z,5.20
2018-06-02T12:33:55.020Z,3.43
2018-06-02T12:36:23.301Z,5.73
2018-06-02T12:38:51.543Z,4.50
2018-06-02T12:41:19.760Z,4.10
2018-06-02T12:43:48.788Z,4.50
2018-06-02T12:46:17.048Z,5.40
2018-06-02T12:48:45.279Z,6.63
2018-06-02T12:51:13.519Z,3.87
2018-06-02T12:53:42.539Z,3.57
2018-06-02T12:56:10.807Z,6.47
2018-06-02T12:58:39.120Z,3.73
2018-06-02T13:01:07.427Z,4.87
2018-06-02T13:03:35.627Z,3.97
2018-06-02T13:06:03.863Z,3.60
2018-06-02T13:08:33.003Z,3.00
2018-06-02T13:11:01.239Z,3.17
2018-06-02T13:13:30.285Z,3.80
2018-06-02T13:15:58.531Z,6.13
2018-06-02T13:18:26.824Z,6.00
2018-06-02T13:20:55.072Z,3.00
2018-06-02T13:23:23.372Z,2.70
2018-06-02T13:25:51.745Z,4.33
2018-06-02T13:28:19.959Z,3.37
2018-06-02T13:30:48.207Z,3.67
2018-06-02T13:33:16.465Z,3.03
2018-06-02T13:35:44.956Z,6.30
2018-06-02T13:38:13.195Z,4.53
2018-06-02T13:40:42.264Z,4.90
2018-06-02T13:43:10.530Z,3.33
2018-06-02T13:45:38.850Z,3.13
2018-06-02T13:48:07.085Z,4.93
2018-06-02T13:50:35.364Z,4.17
2018-06-02T13:53:03.606Z,4.47
2018-06-02T13:55:31.956Z,3.83
2018-06-02T13:58:00.263Z,5.37
2018-06-02T14:00:28.757Z,4.43
2018-06-02T14:02:57.129Z,3.87
2018-06-02T14:05:25.383Z,3.60
2018-06-02T14:07:53.696Z,2.73
2018-06-02T14:10:21.942Z,3.27
2018-06-02T14:12:50.339Z,3.57
2018-06-02T14:15:18.571Z,3.00
2018-06-02T14:17:47.593Z,4.97
2018-06-02T14:20:17.065Z,3.67
2018-06-02T14:22:46.073Z,3.10
2018-06-02T14:25:15.090Z,3.80
2018-06-02T14:27:44.075Z,3.37
2018-06-02T14:30:12.475Z,5.47
2018-06-02T14:32:41.467Z,5.30
2018-06-02T14:35:09.995Z,3.00
2018-06-02T14:37:38.252Z,4.93
2018-06-02T14:40:06.571Z,4.83
2018-06-02T14:42:35.813Z,4.53
2018-06-02T14:45:04.173Z,5.40
2018-06-02T14:47:33.260Z,3.13
2018-06-02T14:50:01.603Z,3.20
2018-06-02T14:52:30.665Z,3.30
2018-06-02T14:54:58.901Z,2.80
2018-06-02T14:57:27.954Z,4.10
2018-06-02T14:59:56.224Z,3.67
2018-06-02T15:02:24.571Z,2.00
2018-06-02T15:04:52.900Z,2.17
2018-06-02T15:07:21.143Z,3.47
2018-06-02T15:09:49.467Z,2.87
2018-06-02T15:12:18.463Z,2.03
2018-06-02T15:14:47.512Z,2.30
2018-06-02T15:17:15.808Z,3.03
2018-06-02T15:19:44.047Z,2.83
2018-06-02T15:22:12.284Z,4.47
2018-06-02T15:24:41.382Z,3.03
2018-06-02T15:27:09.730Z,3.63
2018-06-02T15:29:37.943Z,4.97
2018-06-02T15:32:06.216Z,2.97
2018-06-02T15:34:34.563Z,3.70
2018-06-02T15:37:02.812Z,2.80
2018-06-02T15:39:31.134Z,4.40
2018-06-02T15:42:00.136Z,4.43
2018-06-02T15:44:28.451Z,3.73
2018-06-02T15:46:56.688Z,4.27
2018-06-02T15:49:25.755Z,4.43
2018-06-02T15:51:53.995Z,2.83
2018-06-02T15:54:22.269Z,5.40
2018-06-02T15:56:50.657Z,2.93
2018-06-02T15:59:19.018Z,5.43
2018-06-02T16:01:47.272Z,3.00
2018-06-02T16:04:16.312Z,3.63
2018-06-02T16:06:44.551Z,6.60
2018-06-02T16:09:13.640Z,3.47
2018-06-02T16:11:41.901Z,4.70
2018-06-02T16:14:10.148Z,3.17
2018-06-02T16:16:38.392Z,3.13
2018-06-02T16:19:06.844Z,4.63
2018-06-02T16:21:35.065Z,5.30
2018-06-02T16:24:03.331Z,2.80
2018-06-02T16:26:31.583Z,5.13
2018-06-02T16:28:59.816Z,4.30
2018-06-02T16:31:28.088Z,3.37
2018-06-02T16:33:56.495Z,4.37
2018-06-02T16:36:25.519Z,3.10
2018-06-02T16:38:53.814Z,5.77
2018-06-02T16:41:22.111Z,4.33
2018-06-02T16:43:50.392Z,3.40
2018-06-02T16:46:18.652Z,3.53
2018-06-02T16:48:47.072Z,3.97
2018-06-02T16:51:16.071Z,4.27
2018-06-02T16:53:45.151Z,6.33
2018-06-02T16:56:13.427Z,4.47
2018-06-02T16:58:41.696Z,3.87
2018-06-02T17:01:09.927Z,3.83
2018-06-02T17:03:38.339Z,4.40
2018-06-02T17:06:06.604Z,4.00
2018-06-02T17:08:34.842Z,4.87
2018-06-02T17:11:03.131Z,6.03
2018-06-02T17:13:31.367Z,4.43
2018-06-02T17:15:59.620Z,5.87
2018-06-02T17:18:27.918Z,7.07
2018-06-02T17:20:56.780Z,4.37
2018-06-02T17:23:25.163Z,5.80
2018-06-02T17:25:53.456Z,4.27
2018-06-02T17:28:21.765Z,4.40
2018-06-02T17:30:50.832Z,4.63
2018-06-02T17:33:19.072Z,6.60
2018-06-02T17:35:47.308Z,4.80
2018-06-02T17:38:16.311Z,5.90
2018-06-02T17:40:45.512Z,4.83
2018-06-02T17:43:14.560Z,4.80
2018-06-02T17:45:42.804Z,6.67
2018-06-02T17:48:11.136Z,5.30
2018-06-02T17:50:39.373Z,5.27
2018-06-02T17:53:07.615Z,5.43
2018-06-02T17:55:35.880Z,5.73
2018-06-02T17:58:04.887Z,5.17
2018-06-02T18:00:33.119Z,6.70
2018-06-02T18:03:01.388Z,6.57
2018-06-02T18:05:29.707Z,6.73
2018-06-02T18:07:57.971Z,5.03
2018-06-02T18:10:26.980Z,5.77
2018-06-02T18:12:55.316Z,5.37
2018-06-02T18:15:23.631Z,5.47
2018-06-02T18:17:52.656Z,5.70
2018-06-02T18:20:20.887Z,5.40
2018-06-02T18:22:49.956Z,4.90
2018-06-02T18:25:18.232Z,5.57
2018-06-02T18:27:46.508Z,6.73
2018-06-02T18:30:14.944Z,5.63
2018-06-02T18:32:43.204Z,6.63
2018-06-02T18:35:12.214Z,5.60
2018-06-02T18:37:40.623Z,5.27
2018-06-02T18:40:08.889Z,5.60
2018-06-02T18:42:37.143Z,5.97
2018-06-02T18:45:05.404Z,5.57
2018-06-02T18:47:34.464Z,5.87
2018-06-02T18:50:02.700Z,6.57
2018-06-02T18:52:30.927Z,5.83
2018-06-02T18:54:59.243Z,7.83
2018-06-02T18:57:27.477Z,6.53
2018-06-02T18:59:55.732Z,6.20
2018-06-02T19:02:24.026Z,6.07
2018-06-02T19:04:52.383Z,5.87
2018-06-02T19:07:21.454Z,5.57
2018-06-02T19:09:49.651Z,6.60
2018-06-02T19:12:18.186Z,6.20
2018-06-02T19:14:47.164Z,5.67
2018-06-02T19:17:15.500Z,8.30
2018-06-02T19:19:43.787Z,6.10
2018-06-02T19:22:12.461Z,7.73
2018-06-02T19:24:40.972Z,6.00
2018-06-02T19:27:09.204Z,6.57
2018-06-02T19:29:38.086Z,6.10
2018-06-02T19:32:06.472Z,6.60
2018-06-02T19:34:34.701Z,6.60
2018-06-02T19:37:02.966Z,7.03
2018-06-02T19:42:06.503Z,6.90
2018-06-02T19:44:34.732Z,6.83
2018-06-02T19:47:03.026Z,6.87
2018-06-02T19:49:31.256Z,6.57
2018-06-02T19:51:59.483Z,9.20
2018-06-02T19:54:27.806Z,8.07
2018-06-02T19:56:56.809Z,8.03
2018-06-02T19:59:25.056Z,8.83
2018-06-02T20:01:53.327Z,6.70
2018-06-02T20:04:21.636Z,7.20
2018-06-02T20:06:50.673Z,7.67
2018-06-02T20:09:19.013Z,7.03
2018-06-02T20:11:47.415Z,9.97
2018-06-02T20:14:16.419Z,8.50
2018-06-02T20:16:44.703Z,8.43
2018-06-02T20:19:12.964Z,7.87
2018-06-02T20:21:41.192Z,8.07
2018-06-02T20:24:10.389Z,8.20
2018-06-02T20:26:38.619Z,8.60
2018-06-02T20:29:06.856Z,8.53
2018-06-02T20:31:36.084Z,9.03
2018-06-02T20:34:04.352Z,9.03
2018-06-02T20:36:32.572Z,8.07
2018-06-02T20:39:01.608Z,9.40
2018-06-02T20:41:29.968Z,8.83
2018-06-02T20:43:59.004Z,8.97
2018-06-02T20:46:27.284Z,8.27
2018-06-02T20:48:55.539Z,9.27
2018-06-02T20:51:23.931Z,8.97
2018-06-02T20:53:52.285Z,9.37
2018-06-02T20:56:21.291Z,8.90
2018-06-02T20:58:49.568Z,9.27
2018-06-02T21:01:17.804Z,9.00
2018-06-02T21:03:46.084Z,10.83
2018-06-02T21:06:14.344Z,9.17
2018-06-02T21:08:42.671Z,9.03
2018-06-02T21:11:10.951Z,8.73
2018-06-02T21:13:39.203Z,9.00
2018-06-02T21:16:07.447Z,9.17
2018-06-02T21:18:35.679Z,9.57
2018-06-02T21:21:03.920Z,8.77
2018-06-02T21:23:32.239Z,9.80
2018-06-02T21:26:00.471Z,9.87
2018-06-02T21:28:28.723Z,9.70
2018-06-02T21:30:57.024Z,9.63
2018-06-02T21:33:25.278Z,10.67
2018-06-02T21:35:53.660Z,9.53
2018-06-02T21:38:22.032Z,9.20
2018-06-02T21:40:50.255Z,9.43
2018-06-02T21:43:18.540Z,9.90
2018-06-02T21:45:47.539Z,9.53
2018-06-02T21:48:16.580Z,9.63
2018-06-02T21:50:44.859Z,9.50
2018-06-02T21:53:13.144Z,9.27
2018-06-02T21:55:41.383Z,10.30
2018-06-02T21:58:09.623Z,10.33
2018-06-02T22:00:38.767Z,9.30
2018-06-02T22:03:07.021Z,14.03
2018-06-02T22:05:36.464Z,11.20
2018-06-02T22:08:04.732Z,10.40
2018-06-02T22:10:33.018Z,11.23
2018-06-02T22:13:01.525Z,9.47
2018-06-02T22:15:29.796Z,10.73
2018-06-02T22:17:58.787Z,10.00
2018-06-02T22:20:27.035Z,10.23
2018-06-02T22:22:55.376Z,9.83
2018-06-02T22:25:24.384Z,11.73
2018-06-02T22:27:52.656Z,11.60
2018-06-02T22:30:21.809Z,11.33
2018-06-02T22:32:50.028Z,10.83
2018-06-02T22:35:19.035Z,10.60
2018-06-02T22:37:47.320Z,10.97
2018-06-02T22:40:15.608Z,10.77
2018-06-02T22:42:44.592Z,10.23
2018-06-02T22:45:12.832Z,11.70
2018-06-02T22:47:41.914Z,10.83
2018-06-02T22:50:10.209Z,9.63
2018-06-02T22:52:38.383Z,11.37
2018-06-02T22:55:07.456Z,11.30
2018-06-02T22:57:35.724Z,11.17
2018-06-02T23:00:04.085Z,10.73
2018-06-02T23:02:32.607Z,11.83
2018-06-02T23:05:01.709Z,11.73
2018-06-02T23:07:29.993Z,12.03
2018-06-02T23:09:59.104Z,13.20
2018-06-02T23:12:27.428Z,12.50
2018-06-02T23:14:55.672Z,12.87
2018-06-02T23:17:23.991Z,10.97
2018-06-02T23:19:52.278Z,12.33
2018-06-02T23:22:39.382Z,12.50
2018-06-02T23:25:08.351Z,11.73
2018-06-02T23:27:36.689Z,12.10
2018-06-02T23:30:04.978Z,11.80
2018-06-02T23:32:33.215Z,11.50
2018-06-02T23:35:01.460Z,11.90
2018-06-02T23:37:29.736Z,11.53
2018-06-02T23:39:58.039Z,11.37
2018-06-02T23:42:26.287Z,11.83
2018-06-02T23:44:54.532Z,12.23
2018-06-02T23:47:22.815Z,12.67
2018-06-02T23:49:51.127Z,12.80
2018-06-02T23:52:19.375Z,13.40
2018-06-02T23:54:47.671Z,12.33
2018-06-02T23:57:15.955Z,11.63
2018-06-02T23:59:44.204Z,12.37
